createdAt,value
2022-08-17T00:00:43.901Z,21.31
2022-08-17T00:03:25.521Z,21.31
2022-08-17T00:06:28.087Z,21.31
2022-08-17T00:09:00.774Z,21.32
2022-08-17T00:11:37.096Z,21.30
2022-08-17T00:14:09.205Z,21.29
2022-08-17T00:16:55.906Z,21.25
2022-08-17T00:19:27.135Z,21.25
2022-08-17T00:22:31.260Z,21.24
2022-08-17T00:24:48.716Z,21.21
2022-08-17T00:27:16.683Z,21.21
2022-08-17T00:29:46.060Z,21.20
2022-08-17T00:33:12.093Z,21.18
2022-08-17T00:35:10.630Z,21.15
2022-08-17T00:37:40.227Z,21.11
2022-08-17T00:40:11.269Z,21.07
2022-08-17T00:42:39.415Z,21.02
2022-08-17T00:45:10.949Z,20.97
2022-08-17T00:47:39.374Z,20.95
2022-08-17T00:50:10.992Z,20.93
2022-08-17T00:52:51.837Z,20.92
2022-08-17T00:55:20.885Z,20.89
2022-08-17T00:57:55.514Z,20.87
2022-08-17T01:00:32.235Z,20.82
2022-08-17T01:03:07.813Z,20.76
2022-08-17T01:05:42.089Z,20.69
2022-08-17T01:08:17.449Z,20.65
2022-08-17T01:10:59.139Z,20.62
2022-08-17T01:13:40.770Z,20.61
2022-08-17T01:16:17.280Z,20.58
2022-08-17T01:18:48.442Z,20.55
2022-08-17T01:21:51.546Z,20.51
2022-08-17T01:24:19.527Z,20.49
2022-08-17T01:26:47.546Z,20.46
2022-08-17T01:29:18.945Z,20.45
2022-08-17T01:31:52.499Z,20.43
2022-08-17T01:34:21.688Z,20.40
2022-08-17T01:36:50.596Z,20.39
2022-08-17T01:39:23.513Z,20.36
2022-08-17T01:41:56.372Z,20.33
2022-08-17T01:44:28.427Z,20.28
2022-08-17T01:46:56.842Z,20.25
2022-08-17T01:49:25.210Z,20.22
2022-08-17T01:51:55.155Z,20.21
2022-08-17T01:54:25.159Z,20.19
2022-08-17T01:56:54.366Z,20.16
2022-08-17T01:59:22.394Z,20.14
2022-08-17T02:01:50.730Z,20.12
2022-08-17T02:04:19.559Z,20.09
2022-08-17T02:06:53.249Z,20.06
2022-08-17T02:09:25.805Z,20.03
2022-08-17T02:11:58.710Z,20.00
2022-08-17T02:14:26.953Z,19.99
2022-08-17T02:16:54.838Z,19.98
2022-08-17T02:19:24.279Z,19.96
2022-08-17T02:21:56.682Z,19.95
2022-08-17T02:25:00.131Z,19.92
2022-08-17T02:27:21.770Z,19.91
2022-08-17T02:29:49.868Z,19.89
2022-08-17T02:32:28.226Z,19.86
2022-08-17T02:34:59.220Z,19.80
2022-08-17T02:37:30.454Z,19.78
2022-08-17T02:40:00.002Z,19.75
2022-08-17T02:42:41.012Z,19.75
2022-08-17T02:45:16.677Z,19.73
2022-08-17T02:47:46.582Z,19.69
2022-08-17T02:50:19.348Z,19.65
2022-08-17T02:53:01.369Z,19.62
2022-08-17T02:55:37.188Z,19.58
2022-08-17T02:58:07.466Z,19.54
2022-08-17T03:00:41.318Z,19.49
2022-08-17T03:03:11.098Z,19.42
2022-08-17T03:05:40.000Z,19.39
2022-08-17T03:08:13.111Z,19.35
2022-08-17T03:10:43.224Z,19.31
2022-08-17T03:13:14.886Z,19.28
2022-08-17T03:15:47.447Z,19.26
2022-08-17T03:18:24.663Z,19.26
2022-08-17T03:20:56.751Z,19.25
2022-08-17T03:23:25.937Z,19.25
2022-08-17T03:25:56.069Z,19.24
2022-08-17T03:28:26.116Z,19.25
2022-08-17T03:30:56.107Z,19.25
2022-08-17T03:33:26.119Z,19.25
2022-08-17T03:35:54.128Z,19.26
2022-08-17T03:38:23.882Z,19.26
2022-08-17T03:40:57.338Z,19.26
2022-08-17T03:43:32.504Z,19.27
2022-08-17T03:46:28.865Z,19.28
2022-08-17T03:49:25.041Z,19.30
2022-08-17T03:52:16.399Z,19.30
2022-08-17T03:55:05.153Z,19.31
2022-08-17T03:57:33.264Z,19.33
2022-08-17T04:00:01.563Z,19.33
2022-08-17T04:02:41.023Z,19.34
2022-08-17T04:05:09.763Z,19.34
2022-08-17T04:07:37.589Z,19.35
2022-08-17T04:10:06.453Z,19.37
2022-08-17T04:12:51.365Z,19.38
2022-08-17T04:15:20.602Z,19.40
2022-08-17T04:17:48.500Z,19.41
2022-08-17T04:20:18.905Z,19.40
2022-08-17T04:23:09.821Z,19.42
2022-08-17T04:25:42.117Z,19.45
2022-08-17T04:28:16.119Z,19.46
2022-08-17T04:30:45.574Z,19.50
2022-08-17T04:33:21.137Z,19.53
2022-08-17T04:35:52.662Z,19.57
2022-08-17T04:38:27.302Z,19.63
2022-08-17T04:41:19.971Z,19.68
2022-08-17T04:43:50.440Z,19.74
2022-08-17T04:46:20.540Z,19.79
2022-08-17T04:48:51.166Z,19.82
2022-08-17T04:51:38.935Z,19.85
2022-08-17T04:54:17.429Z,19.92
2022-08-17T04:56:46.385Z,19.96
2022-08-17T04:59:18.532Z,20.00
2022-08-17T05:01:50.639Z,20.02
2022-08-17T05:04:34.229Z,20.06
2022-08-17T05:07:05.735Z,20.09
2022-08-17T05:09:33.888Z,20.09
2022-08-17T05:12:02.823Z,20.09
2022-08-17T05:14:33.738Z,20.10
2022-08-17T05:17:07.478Z,20.14
2022-08-17T05:19:42.167Z,20.18
2022-08-17T05:22:11.212Z,20.22
2022-08-17T05:24:43.462Z,20.26
2022-08-17T05:27:23.617Z,20.32
2022-08-17T05:29:52.183Z,20.37
2022-08-17T05:32:39.624Z,20.42
2022-08-17T05:35:08.685Z,20.49
2022-08-17T05:37:37.751Z,20.58
2022-08-17T05:40:07.247Z,20.67
2022-08-17T05:42:35.727Z,20.74
2022-08-17T05:45:04.934Z,20.84
2022-08-17T05:47:33.199Z,20.92
2022-08-17T05:50:02.960Z,21.00
2022-08-17T05:52:47.820Z,21.08
2022-08-17T05:55:22.680Z,21.16
2022-08-17T05:58:13.777Z,21.21
2022-08-17T06:00:56.206Z,21.27
2022-08-17T06:03:30.088Z,21.33
2022-08-17T06:06:06.829Z,21.36
2022-08-17T06:08:54.197Z,21.40
2022-08-17T06:11:41.718Z,21.51
2022-08-17T06:14:26.866Z,21.59
2022-08-17T06:17:02.773Z,21.65
2022-08-17T06:19:57.775Z,21.71
2022-08-17T06:22:34.102Z,21.76
2022-08-17T06:25:32.293Z,21.82
2022-08-17T06:28:08.380Z,21.90
2022-08-17T06:31:00.271Z,21.97
2022-08-17T06:33:49.799Z,22.04
2022-08-17T06:36:28.238Z,22.12
2022-08-17T06:39:23.667Z,22.20
2022-08-17T06:41:56.944Z,22.29
2022-08-17T06:44:50.723Z,22.39
2022-08-17T06:47:31.878Z,22.49
2022-08-17T06:50:07.430Z,22.58
2022-08-17T06:52:50.006Z,22.67
2022-08-17T06:55:34.470Z,22.76
2022-08-17T06:58:15.802Z,22.86
2022-08-17T07:00:49.356Z,22.93
2022-08-17T07:03:27.506Z,22.98
2022-08-17T07:06:13.015Z,23.05
2022-08-17T07:08:59.990Z,23.13
2022-08-17T07:11:40.270Z,23.22
2022-08-17T07:14:31.410Z,23.27
2022-08-17T07:17:14.699Z,23.35
2022-08-17T07:19:45.855Z,23.45
2022-08-17T07:22:25.085Z,23.52
2022-08-17T07:25:20.922Z,23.61
2022-08-17T07:28:00.126Z,23.68
2022-08-17T07:30:31.936Z,23.77
2022-08-17T07:33:27.107Z,23.85
2022-08-17T07:35:57.611Z,23.97
2022-08-17T07:38:55.057Z,24.06
2022-08-17T07:41:23.649Z,24.18
2022-08-17T07:43:54.259Z,24.29
2022-08-17T07:46:54.307Z,24.39
2022-08-17T07:49:35.038Z,24.51
2022-08-17T07:52:24.025Z,24.61
2022-08-17T07:55:06.914Z,24.74
2022-08-17T07:57:40.854Z,24.82
2022-08-17T08:00:17.933Z,24.89
2022-08-17T08:02:59.438Z,24.96
2022-08-17T08:05:49.371Z,25.01
2022-08-17T08:08:22.226Z,25.11
2022-08-17T08:11:01.693Z,25.20
2022-08-17T08:13:33.093Z,25.31
2022-08-17T08:16:24.647Z,25.41
2022-08-17T08:18:57.550Z,25.53
2022-08-17T08:22:00.284Z,25.64
2022-08-17T08:24:35.055Z,25.76
2022-08-17T08:27:44.388Z,25.86
2022-08-17T08:30:18.048Z,25.97
2022-08-17T08:33:17.369Z,26.09
2022-08-17T08:36:14.634Z,26.21
2022-08-17T08:39:16.351Z,26.33
2022-08-17T08:42:03.907Z,26.44
2022-08-17T08:44:59.879Z,26.57
2022-08-17T08:47:51.978Z,26.68
2022-08-17T08:50:38.035Z,26.78
2022-08-17T08:53:54.668Z,26.89
2022-08-17T08:56:35.485Z,27.02
2022-08-17T08:59:19.454Z,27.11
2022-08-17T09:02:34.927Z,27.22
2022-08-17T09:05:39.480Z,27.34
2022-08-17T09:08:35.949Z,27.46
2022-08-17T09:11:34.236Z,27.54
2022-08-17T09:14:31.858Z,27.64
2022-08-17T09:17:22.602Z,27.73
2022-08-17T09:19:57.951Z,27.83
2022-08-17T09:22:31.887Z,27.95
2022-08-17T09:25:10.112Z,28.08
2022-08-17T09:27:41.544Z,28.19
2022-08-17T09:30:12.248Z,28.27
2022-08-17T09:32:44.216Z,28.38
2022-08-17T09:35:25.280Z,28.48
2022-08-17T09:38:39.919Z,28.64
2022-08-17T09:41:28.464Z,28.80
2022-08-17T09:44:13.867Z,28.93
2022-08-17T09:47:30.679Z,29.05
2022-08-17T09:50:55.454Z,29.16
2022-08-17T09:53:19.942Z,29.28
2022-08-17T09:56:05.513Z,29.37
2022-08-17T09:58:53.207Z,29.49
2022-08-17T10:01:35.716Z,29.58
2022-08-17T10:04:39.190Z,29.66
2022-08-17T10:07:19.525Z,29.75
2022-08-17T10:10:14.308Z,29.81
2022-08-17T10:12:53.150Z,29.92
2022-08-17T10:15:49.938Z,30.01
2022-08-17T10:18:31.902Z,30.11
2022-08-17T10:21:24.766Z,30.24
2022-08-17T10:24:39.512Z,30.36
2022-08-17T10:28:06.866Z,30.52
2022-08-17T10:30:48.283Z,30.62
2022-08-17T10:33:57.620Z,30.73
2022-08-17T10:36:46.812Z,30.87
2022-08-17T10:39:30.958Z,31.01
2022-08-17T10:42:12.862Z,31.15
2022-08-17T10:45:26.387Z,31.21
2022-08-17T10:48:05.681Z,31.23
2022-08-17T10:50:46.317Z,31.19
2022-08-17T10:53:54.126Z,31.12
2022-08-17T10:56:24.377Z,31.15
2022-08-17T10:58:59.083Z,31.28
2022-08-17T11:01:33.342Z,31.42
2022-08-17T11:04:26.650Z,31.62
2022-08-17T11:07:02.398Z,31.82
2022-08-17T11:10:04.395Z,31.94
2022-08-17T11:12:57.082Z,32.02
2022-08-17T11:15:46.099Z,32.15
2022-08-17T11:18:40.813Z,32.27
2022-08-17T11:21:18.097Z,32.40
2022-08-17T11:24:12.839Z,32.51
2022-08-17T11:26:47.880Z,32.61
2022-08-17T11:29:29.550Z,32.66
2022-08-17T11:32:04.926Z,32.72
2022-08-17T11:34:35.317Z,32.80
2022-08-17T11:37:18.630Z,32.86
2022-08-17T11:40:08.491Z,32.93
2022-08-17T11:42:45.664Z,32.97
2022-08-17T11:45:44.205Z,33.07
2022-08-17T11:48:59.019Z,33.26
2022-08-17T11:52:00.092Z,33.57
2022-08-17T11:54:39.368Z,33.73
2022-08-17T11:57:29.418Z,33.90
2022-08-17T12:00:09.926Z,34.07
2022-08-17T12:02:48.141Z,34.17
2022-08-17T12:05:26.225Z,34.27
2022-08-17T12:08:00.204Z,34.32
2022-08-17T12:10:34.515Z,34.55
2022-08-17T12:13:15.967Z,34.76
2022-08-17T12:15:50.440Z,35.04
2022-08-17T12:18:21.828Z,35.26
2022-08-17T12:21:09.532Z,35.37
2022-08-17T12:24:07.881Z,35.50
2022-08-17T12:26:37.133Z,35.70
2022-08-17T12:29:18.083Z,35.89
2022-08-17T12:32:02.681Z,36.06
2022-08-17T12:34:39.319Z,36.21
2022-08-17T12:37:15.528Z,36.27
2022-08-17T12:39:57.985Z,36.46
2022-08-17T12:42:33.745Z,36.64
2022-08-17T12:45:01.878Z,36.88
2022-08-17T12:47:30.554Z,37.06
2022-08-17T12:50:28.458Z,37.23
2022-08-17T12:53:01.963Z,37.41
2022-08-17T12:55:37.635Z,37.50
2022-08-17T12:58:13.610Z,37.60
2022-08-17T13:00:50.935Z,37.56
2022-08-17T13:03:23.134Z,37.44
2022-08-17T13:06:15.189Z,37.30
2022-08-17T13:08:48.565Z,37.27
2022-08-17T13:11:24.419Z,37.41
2022-08-17T13:13:56.239Z,37.54
2022-08-17T13:16:27.996Z,37.67
2022-08-17T13:19:18.944Z,37.73
2022-08-17T13:22:15.535Z,37.90
2022-08-17T13:24:54.280Z,38.11
2022-08-17T13:27:25.841Z,38.35
2022-08-17T13:30:08.440Z,38.48
2022-08-17T13:32:47.595Z,38.56
2022-08-17T13:35:33.426Z,38.65
2022-08-17T13:38:13.012Z,38.86
2022-08-17T13:40:49.356Z,39.12
2022-08-17T13:43:39.509Z,39.25
2022-08-17T13:46:35.096Z,39.34
2022-08-17T13:49:06.729Z,39.49
2022-08-17T13:51:50.428Z,39.49
2022-08-17T13:54:32.869Z,39.70
2022-08-17T13:57:20.032Z,39.98
2022-08-17T13:59:54.656Z,40.13
2022-08-17T14:02:28.801Z,40.40
2022-08-17T14:04:58.725Z,40.64
2022-08-17T14:07:33.916Z,40.80
2022-08-17T14:10:03.192Z,40.91
2022-08-17T14:12:39.727Z,40.94
2022-08-17T14:15:12.447Z,40.99
2022-08-17T14:17:40.426Z,41.04
2022-08-17T14:20:13.076Z,41.18
2022-08-17T14:22:45.335Z,41.24
2022-08-17T14:25:16.434Z,41.34
2022-08-17T14:27:52.777Z,41.60
2022-08-17T14:30:24.632Z,41.93
2022-08-17T14:32:53.642Z,42.20
2022-08-17T14:35:25.470Z,42.53
2022-08-17T14:37:54.157Z,42.86
2022-08-17T14:40:24.990Z,43.12
2022-08-17T14:42:55.419Z,43.28
2022-08-17T14:45:32.415Z,43.19
2022-08-17T14:48:07.989Z,42.97
2022-08-17T14:50:38.922Z,42.87
2022-08-17T14:53:15.132Z,42.71
2022-08-17T14:55:45.795Z,42.67
2022-08-17T14:58:15.368Z,42.64
2022-08-17T15:00:43.697Z,42.74
2022-08-17T15:03:12.412Z,43.00
2022-08-17T15:05:41.075Z,43.28
2022-08-17T15:08:11.120Z,43.60
2022-08-17T15:10:39.461Z,43.91
2022-08-17T15:13:20.185Z,44.03
2022-08-17T15:15:48.560Z,44.36
2022-08-17T15:18:18.735Z,44.73
2022-08-17T15:20:52.398Z,44.95
2022-08-17T15:23:23.228Z,45.10
2022-08-17T15:25:53.828Z,45.37
2022-08-17T15:28:23.037Z,45.54
2022-08-17T15:30:52.496Z,45.50
2022-08-17T15:33:29.496Z,45.37
2022-08-17T15:36:00.829Z,45.34
2022-08-17T15:38:30.178Z,45.36
2022-08-17T15:41:00.191Z,45.27
2022-08-17T15:43:33.995Z,45.16
2022-08-17T15:46:05.889Z,45.16
2022-08-17T15:48:43.450Z,45.08
2022-08-17T15:51:18.459Z,45.01
2022-08-17T15:53:52.333Z,44.95
2022-08-17T15:56:20.935Z,45.08
2022-08-17T15:58:49.510Z,45.10
2022-08-17T16:02:22.366Z,44.89
2022-08-17T16:04:30.639Z,44.80
2022-08-17T16:06:58.990Z,45.00
2022-08-17T16:09:28.646Z,45.14
2022-08-17T16:11:56.727Z,45.18
2022-08-17T16:14:32.516Z,45.18
2022-08-17T16:17:04.730Z,45.02
2022-08-17T16:19:34.256Z,44.68
2022-08-17T16:22:03.863Z,44.10
2022-08-17T16:24:33.173Z,43.71
2022-08-17T16:27:01.584Z,43.45
2022-08-17T16:29:29.447Z,43.43
2022-08-17T16:31:58.278Z,43.50
2022-08-17T16:34:25.938Z,43.47
2022-08-17T16:36:56.442Z,43.51
2022-08-17T16:39:27.553Z,43.61
2022-08-17T16:41:56.186Z,43.87
2022-08-17T16:44:25.917Z,44.05
2022-08-17T16:46:54.170Z,43.99
2022-08-17T16:49:34.448Z,43.90
2022-08-17T16:52:05.934Z,43.89
2022-08-17T16:54:35.677Z,43.88
2022-08-17T16:57:05.456Z,43.58
2022-08-17T16:59:41.112Z,43.39
2022-08-17T17:02:15.044Z,43.06
2022-08-17T17:05:11.636Z,42.62
2022-08-17T17:08:09.239Z,42.09
2022-08-17T17:10:44.881Z,41.55
2022-08-17T17:13:27.987Z,41.01
2022-08-17T17:15:55.759Z,40.49
2022-08-17T17:18:34.525Z,40.13
2022-08-17T17:21:02.521Z,39.85
2022-08-17T17:23:55.019Z,39.63
2022-08-17T17:26:59.874Z,39.35
2022-08-17T17:29:54.509Z,39.03
2022-08-17T17:32:38.113Z,38.60
2022-08-17T17:35:35.989Z,38.20
2022-08-17T17:38:15.236Z,37.76
2022-08-17T17:40:47.616Z,37.44
2022-08-17T17:43:38.367Z,37.07
2022-08-17T17:46:29.052Z,36.59
2022-08-17T17:48:58.735Z,36.12
2022-08-17T17:52:06.835Z,35.73
2022-08-17T17:54:46.360Z,35.40
2022-08-17T17:57:24.969Z,35.20
2022-08-17T18:00:06.904Z,34.95
2022-08-17T18:02:51.995Z,34.57
2022-08-17T18:05:44.332Z,34.31
2022-08-17T18:08:36.613Z,34.05
2022-08-17T18:11:27.014Z,33.79
2022-08-17T18:14:02.560Z,33.45
2022-08-17T18:16:32.841Z,33.15
2022-08-17T18:19:01.649Z,32.83
2022-08-17T18:21:38.054Z,32.53
2022-08-17T18:24:08.717Z,32.24
2022-08-17T18:26:44.997Z,31.99
2022-08-17T18:29:27.932Z,31.77
2022-08-17T18:32:32.671Z,31.59
2022-08-17T18:35:28.358Z,31.39
2022-08-17T18:38:22.082Z,31.17
2022-08-17T18:41:18.336Z,30.98
2022-08-17T18:44:18.868Z,30.78
2022-08-17T18:46:48.094Z,30.60
2022-08-17T18:49:18.977Z,30.45
2022-08-17T18:51:47.134Z,30.30
2022-08-17T18:54:21.134Z,30.17
2022-08-17T18:57:00.074Z,30.04
2022-08-17T18:59:39.825Z,29.91
2022-08-17T19:02:24.834Z,29.79
2022-08-17T19:05:27.113Z,29.65
2022-08-17T19:08:13.934Z,29.51
2022-08-17T19:10:46.084Z,29.36
2022-08-17T19:13:23.404Z,29.24
2022-08-17T19:16:11.764Z,29.13
2022-08-17T19:18:52.999Z,29.04
2022-08-17T19:21:31.080Z,28.95
2022-08-17T19:24:08.327Z,28.85
2022-08-17T19:26:54.052Z,28.73
2022-08-17T19:29:35.159Z,28.63
2022-08-17T19:32:04.307Z,28.56
2022-08-17T19:34:36.988Z,28.47
2022-08-17T19:37:53.415Z,28.36
2022-08-17T19:40:51.774Z,28.27
2022-08-17T19:43:56.564Z,28.17
2022-08-17T19:47:06.216Z,28.09
2022-08-17T19:49:46.678Z,27.99
2022-08-17T19:52:39.420Z,27.92
2022-08-17T19:55:21.489Z,27.86
2022-08-17T19:58:00.987Z,27.79
2022-08-17T20:00:31.327Z,27.73
2022-08-17T20:03:08.147Z,27.67
2022-08-17T20:06:10.771Z,27.61
2022-08-17T20:08:38.970Z,27.55
2022-08-17T20:11:10.797Z,27.51
2022-08-17T20:13:41.770Z,27.46
2022-08-17T20:16:12.684Z,27.41
2022-08-17T20:18:43.948Z,27.35
2022-08-17T20:21:21.900Z,27.27
2022-08-17T20:24:18.650Z,27.20
2022-08-17T20:27:21.806Z,27.11
2022-08-17T20:30:11.137Z,27.04
2022-08-17T20:32:53.208Z,26.98
2022-08-17T20:35:35.541Z,26.91
2022-08-17T20:38:11.093Z,26.81
2022-08-17T20:40:54.656Z,26.81
2022-08-17T20:43:32.830Z,26.77
2022-08-17T20:46:16.018Z,26.74
2022-08-17T20:48:47.775Z,26.69
2022-08-17T20:51:26.698Z,26.66
2022-08-17T20:53:54.549Z,26.62
2022-08-17T20:56:44.976Z,26.54
2022-08-17T20:59:25.621Z,26.53
2022-08-17T21:02:12.430Z,26.48
2022-08-17T21:04:57.414Z,26.43
2022-08-17T21:07:43.044Z,26.39
2022-08-17T21:10:18.244Z,26.35
2022-08-17T21:13:13.894Z,26.30
2022-08-17T21:15:47.622Z,26.25
2022-08-17T21:18:41.396Z,26.21
2022-08-17T21:21:24.771Z,26.19
2022-08-17T21:23:58.154Z,26.15
2022-08-17T21:26:55.645Z,26.13
2022-08-17T21:29:31.547Z,26.09
2022-08-17T21:32:03.101Z,26.06
2022-08-17T21:34:37.410Z,26.04
2022-08-17T21:37:24.179Z,26.00
2022-08-17T21:40:19.139Z,25.97
2022-08-17T21:42:51.232Z,25.94
2022-08-17T21:45:28.936Z,25.91
2022-08-17T21:48:27.487Z,25.81
2022-08-17T21:50:58.789Z,25.85
2022-08-17T21:53:49.902Z,25.82
2022-08-17T21:56:36.674Z,25.78
2022-08-17T21:59:25.160Z,25.74
2022-08-17T22:02:05.953Z,25.71
2022-08-17T22:04:35.439Z,25.67
2022-08-17T22:07:09.053Z,25.63
2022-08-17T22:09:44.707Z,25.59
2022-08-17T22:12:20.746Z,25.55
2022-08-17T22:15:01.359Z,25.51
2022-08-17T22:17:35.926Z,25.44
2022-08-17T22:20:16.894Z,25.40
2022-08-17T22:23:12.929Z,25.34
2022-08-17T22:26:00.267Z,25.28
2022-08-17T22:28:45.939Z,25.21
2022-08-17T22:31:40.163Z,25.14
2022-08-17T22:34:14.801Z,25.08
2022-08-17T22:36:43.185Z,25.03
2022-08-17T22:39:11.179Z,24.98
2022-08-17T22:41:48.659Z,24.91
2022-08-17T22:44:32.199Z,24.86
2022-08-17T22:47:24.250Z,24.80
2022-08-17T22:49:58.004Z,24.74
2022-08-17T22:53:04.394Z,24.69
2022-08-17T22:55:53.168Z,24.63
2022-08-17T22:58:43.518Z,24.58
2022-08-17T23:01:33.383Z,24.51
2022-08-17T23:04:06.138Z,24.45
2022-08-17T23:06:37.282Z,24.39
2022-08-17T23:09:07.371Z,24.33
2022-08-17T23:11:50.182Z,24.27
2022-08-17T23:14:21.265Z,24.23
2022-08-17T23:16:50.330Z,24.19
2022-08-17T23:19:21.363Z,24.12
2022-08-17T23:21:52.874Z,24.08
2022-08-17T23:24:27.037Z,24.02
2022-08-17T23:26:57.655Z,23.96
2022-08-17T23:29:29.550Z,23.90
2022-08-17T23:32:01.407Z,23.83
2022-08-17T23:34:30.892Z,23.76
2022-08-17T23:37:02.854Z,23.71
2022-08-17T23:39:32.801Z,23.63
2022-08-17T23:42:05.593Z,23.56
2022-08-17T23:44:37.151Z,23.48
2022-08-17T23:47:07.985Z,23.39
2022-08-17T23:49:36.625Z,23.33
2022-08-17T23:52:15.244Z,23.27
2022-08-17T23:54:47.820Z,23.22
2022-08-17T23:57:20.165Z,23.18
